sensor_id;sensor_type;location;lat;lon;timestamp;P1;durP1;ratioP1;P2;durP2;ratioP2
505;SDS011;551;48.524;9.056;2023-03-03T00:00:33;53.27;;;27.30;;
505;SDS011;551;48.524;9.056;2023-03-03T00:02:59;55.80;;;29.70;;
505;SDS011;551;48.524;9.056;2023-03-03T00:05:29;56.57;;;28.23;;
505;SDS011;551;48.524;9.056;2023-03-03T00:07:56;54.40;;;26.00;;
505;SDS011;551;48.524;9.056;2023-03-03T00:10:22;56.70;;;29.70;;
505;SDS011;551;48.524;9.056;2023-03-03T00:12:48;54.37;;;28.37;;
505;SDS011;551;48.524;9.056;2023-03-03T00:15:16;54.47;;;28.43;;
505;SDS011;551;48.524;9.056;2023-03-03T00:17:44;55.00;;;29.70;;
505;SDS011;551;48.524;9.056;2023-03-03T00:25:33;59.90;;;28.60;;
505;SDS011;551;48.524;9.056;2023-03-03T00:28:06;57.03;;;29.87;;
505;SDS011;551;48.524;9.056;2023-03-03T00:30:42;62.93;;;29.47;;
505;SDS011;551;48.524;9.056;2023-03-03T00:41:54;53.13;;;28.87;;
505;SDS011;551;48.524;9.056;2023-03-03T00:44:30;51.67;;;28.40;;
505;SDS011;551;48.524;9.056;2023-03-03T00:49:50;55.27;;;28.90;;
505;SDS011;551;48.524;9.056;2023-03-03T00:52:17;48.67;;;27.50;;
505;SDS011;551;48.524;9.056;2023-03-03T00:54:43;52.03;;;27.27;;
505;SDS011;551;48.524;9.056;2023-03-03T00:57:10;50.63;;;26.87;;
505;SDS011;551;48.524;9.056;2023-03-03T00:59:37;56.07;;;26.77;;
505;SDS011;551;48.524;9.056;2023-03-03T01:02:03;54.43;;;28.63;;
505;SDS011;551;48.524;9.056;2023-03-03T01:04:29;56.40;;;29.00;;
505;SDS011;551;48.524;9.056;2023-03-03T01:06:55;58.80;;;28.87;;
505;SDS011;551;48.524;9.056;2023-03-03T01:09:20;59.30;;;27.93;;
505;SDS011;551;48.524;9.056;2023-03-03T01:11:46;56.20;;;28.57;;
505;SDS011;551;48.524;9.056;2023-03-03T01:14:12;52.70;;;27.07;;
505;SDS011;551;48.524;9.056;2023-03-03T01:16:37;53.97;;;29.70;;
505;SDS011;551;48.524;9.056;2023-03-03T01:19:05;57.70;;;27.93;;
505;SDS011;551;48.524;9.056;2023-03-03T01:21:31;62.37;;;27.20;;
505;SDS011;551;48.524;9.056;2023-03-03T01:23:56;65.90;;;29.00;;
505;SDS011;551;48.524;9.056;2023-03-03T01:26:22;56.53;;;27.90;;
505;SDS011;551;48.524;9.056;2023-03-03T01:28:47;48.80;;;26.40;;
505;SDS011;551;48.524;9.056;2023-03-03T01:31:13;55.83;;;29.53;;
505;SDS011;551;48.524;9.056;2023-03-03T01:33:38;60.43;;;31.07;;
505;SDS011;551;48.524;9.056;2023-03-03T01:36:04;59.73;;;31.40;;
505;SDS011;551;48.524;9.056;2023-03-03T01:38:30;55.27;;;28.97;;
505;SDS011;551;48.524;9.056;2023-03-03T01:40:56;53.53;;;27.97;;
505;SDS011;551;48.524;9.056;2023-03-03T01:43:25;64.80;;;29.90;;
505;SDS011;551;48.524;9.056;2023-03-03T01:51:05;54.73;;;29.27;;
505;SDS011;551;48.524;9.056;2023-03-03T01:53:49;62.37;;;31.17;;
505;SDS011;551;48.524;9.056;2023-03-03T01:56:17;66.53;;;29.23;;
505;SDS011;551;48.524;9.056;2023-03-03T01:58:44;58.13;;;28.10;;
505;SDS011;551;48.524;9.056;2023-03-03T02:01:16;58.37;;;30.67;;
505;SDS011;551;48.524;9.056;2023-03-03T02:03:45;55.60;;;28.47;;
505;SDS011;551;48.524;9.056;2023-03-03T02:06:13;68.93;;;28.50;;
505;SDS011;551;48.524;9.056;2023-03-03T02:08:49;56.47;;;29.20;;
505;SDS011;551;48.524;9.056;2023-03-03T02:11:25;57.27;;;29.23;;
505;SDS011;551;48.524;9.056;2023-03-03T02:13:55;65.83;;;30.80;;
505;SDS011;551;48.524;9.056;2023-03-03T02:16:20;54.00;;;28.70;;
505;SDS011;551;48.524;9.056;2023-03-03T02:18:46;55.23;;;28.90;;
505;SDS011;551;48.524;9.056;2023-03-03T02:21:13;60.97;;;31.03;;
505;SDS011;551;48.524;9.056;2023-03-03T02:26:29;57.37;;;29.27;;
505;SDS011;551;48.524;9.056;2023-03-03T02:28:57;57.57;;;29.80;;
505;SDS011;551;48.524;9.056;2023-03-03T02:31:25;63.03;;;32.20;;
505;SDS011;551;48.524;9.056;2023-03-03T02:33:52;61.07;;;28.60;;
505;SDS011;551;48.524;9.056;2023-03-03T02:38:55;69.17;;;30.00;;
505;SDS011;551;48.524;9.056;2023-03-03T02:44:06;64.00;;;29.57;;
505;SDS011;551;48.524;9.056;2023-03-03T02:46:34;55.67;;;27.07;;
505;SDS011;551;48.524;9.056;2023-03-03T02:49:02;55.47;;;28.03;;
505;SDS011;551;48.524;9.056;2023-03-03T02:51:28;55.20;;;29.10;;
505;SDS011;551;48.524;9.056;2023-03-03T02:53:54;49.13;;;26.97;;
505;SDS011;551;48.524;9.056;2023-03-03T02:56:19;60.23;;;27.70;;
505;SDS011;551;48.524;9.056;2023-03-03T02:58:45;54.63;;;29.13;;
505;SDS011;551;48.524;9.056;2023-03-03T03:01:11;66.50;;;31.10;;
505;SDS011;551;48.524;9.056;2023-03-03T03:03:37;54.67;;;27.60;;
505;SDS011;551;48.524;9.056;2023-03-03T03:06:02;59.03;;;27.40;;
505;SDS011;551;48.524;9.056;2023-03-03T03:08:28;60.43;;;30.03;;
505;SDS011;551;48.524;9.056;2023-03-03T03:10:53;54.60;;;27.40;;
505;SDS011;551;48.524;9.056;2023-03-03T03:13:21;51.40;;;28.13;;
505;SDS011;551;48.524;9.056;2023-03-03T03:15:47;62.07;;;27.73;;
505;SDS011;551;48.524;9.056;2023-03-03T03:18:13;56.43;;;28.37;;
505;SDS011;551;48.524;9.056;2023-03-03T03:20:39;50.33;;;26.40;;
505;SDS011;551;48.524;9.056;2023-03-03T03:23:05;53.83;;;26.40;;
505;SDS011;551;48.524;9.056;2023-03-03T03:25:32;56.93;;;28.87;;
505;SDS011;551;48.524;9.056;2023-03-03T03:27:57;62.03;;;31.53;;
505;SDS011;551;48.524;9.056;2023-03-03T03:30:26;56.43;;;27.60;;
505;SDS011;551;48.524;9.056;2023-03-03T03:32:51;50.97;;;28.00;;
505;SDS011;551;48.524;9.056;2023-03-03T03:35:17;59.23;;;27.87;;
505;SDS011;551;48.524;9.056;2023-03-03T03:37:43;51.53;;;27.77;;
505;SDS011;551;48.524;9.056;2023-03-03T03:40:10;56.20;;;27.90;;
505;SDS011;551;48.524;9.056;2023-03-03T03:42:36;62.73;;;28.93;;
505;SDS011;551;48.524;9.056;2023-03-03T03:45:04;59.90;;;28.27;;
505;SDS011;551;48.524;9.056;2023-03-03T03:47:30;57.60;;;28.57;;
505;SDS011;551;48.524;9.056;2023-03-03T03:49:56;53.67;;;27.40;;
505;SDS011;551;48.524;9.056;2023-03-03T03:52:21;54.90;;;28.50;;
505;SDS011;551;48.524;9.056;2023-03-03T03:54:47;53.23;;;29.23;;
505;SDS011;551;48.524;9.056;2023-03-03T03:57:12;55.20;;;28.30;;
505;SDS011;551;48.524;9.056;2023-03-03T03:59:38;64.10;;;29.20;;
505;SDS011;551;48.524;9.056;2023-03-03T04:02:04;65.63;;;28.20;;
505;SDS011;551;48.524;9.056;2023-03-03T04:04:29;50.63;;;26.37;;
505;SDS011;551;48.524;9.056;2023-03-03T04:06:55;64.37;;;28.47;;
505;SDS011;551;48.524;9.056;2023-03-03T04:09:20;66.80;;;29.70;;
505;SDS011;551;48.524;9.056;2023-03-03T04:11:46;56.00;;;29.50;;
505;SDS011;551;48.524;9.056;2023-03-03T04:14:11;59.77;;;27.43;;
505;SDS011;551;48.524;9.056;2023-03-03T04:16:37;63.43;;;31.07;;
505;SDS011;551;48.524;9.056;2023-03-03T04:19:02;60.13;;;31.07;;
505;SDS011;551;48.524;9.056;2023-03-03T04:21:28;49.77;;;27.57;;
505;SDS011;551;48.524;9.056;2023-03-03T04:23:53;52.83;;;28.80;;
505;SDS011;551;48.524;9.056;2023-03-03T04:26:19;54.87;;;28.40;;
505;SDS011;551;48.524;9.056;2023-03-03T04:28:45;50.83;;;25.80;;
505;SDS011;551;48.524;9.056;2023-03-03T04:31:10;59.10;;;27.70;;
505;SDS011;551;48.524;9.056;2023-03-03T04:33:36;53.03;;;27.80;;
505;SDS011;551;48.524;9.056;2023-03-03T04:36:01;57.00;;;28.37;;
505;SDS011;551;48.524;9.056;2023-03-03T04:38:27;47.83;;;24.73;;
505;SDS011;551;48.524;9.056;2023-03-03T04:40:53;57.93;;;31.30;;
505;SDS011;551;48.524;9.056;2023-03-03T04:43:18;55.10;;;28.00;;
505;SDS011;551;48.524;9.056;2023-03-03T04:45:44;54.97;;;27.70;;
505;SDS011;551;48.524;9.056;2023-03-03T04:48:09;59.97;;;27.80;;
505;SDS011;551;48.524;9.056;2023-03-03T04:50:35;60.83;;;28.97;;
505;SDS011;551;48.524;9.056;2023-03-03T04:53:00;62.90;;;28.67;;
505;SDS011;551;48.524;9.056;2023-03-03T04:55:26;60.67;;;30.03;;
505;SDS011;551;48.524;9.056;2023-03-03T04:57:52;52.93;;;27.33;;
505;SDS011;551;48.524;9.056;2023-03-03T05:00:17;48.30;;;28.30;;
505;SDS011;551;48.524;9.056;2023-03-03T05:02:43;62.33;;;28.83;;
505;SDS011;551;48.524;9.056;2023-03-03T05:05:11;59.40;;;28.50;;
505;SDS011;551;48.524;9.056;2023-03-03T05:07:37;53.57;;;27.77;;
505;SDS011;551;48.524;9.056;2023-03-03T05:10:04;57.37;;;28.00;;
505;SDS011;551;48.524;9.056;2023-03-03T05:12:30;47.60;;;25.80;;
505;SDS011;551;48.524;9.056;2023-03-03T05:14:56;52.87;;;27.50;;
505;SDS011;551;48.524;9.056;2023-03-03T05:17:21;56.20;;;27.40;;
505;SDS011;551;48.524;9.056;2023-03-03T05:19:47;50.60;;;26.30;;
505;SDS011;551;48.524;9.056;2023-03-03T05:22:12;54.97;;;28.80;;
505;SDS011;551;48.524;9.056;2023-03-03T05:24:38;56.77;;;30.80;;
505;SDS011;551;48.524;9.056;2023-03-03T05:27:03;64.33;;;29.17;;
505;SDS011;551;48.524;9.056;2023-03-03T05:29:30;53.00;;;26.90;;
505;SDS011;551;48.524;9.056;2023-03-03T05:31:57;62.90;;;31.80;;
505;SDS011;551;48.524;9.056;2023-03-03T05:34:23;58.20;;;26.20;;
505;SDS011;551;48.524;9.056;2023-03-03T05:36:49;63.57;;;28.70;;
505;SDS011;551;48.524;9.056;2023-03-03T05:39:14;55.53;;;29.10;;
505;SDS011;551;48.524;9.056;2023-03-03T05:41:40;60.57;;;29.10;;
505;SDS011;551;48.524;9.056;2023-03-03T05:44:05;62.03;;;31.93;;
505;SDS011;551;48.524;9.056;2023-03-03T05:46:31;54.50;;;27.83;;
505;SDS011;551;48.524;9.056;2023-03-03T05:48:56;59.20;;;30.30;;
505;SDS011;551;48.524;9.056;2023-03-03T05:51:22;54.63;;;29.67;;
505;SDS011;551;48.524;9.056;2023-03-03T05:53:48;57.70;;;27.37;;
505;SDS011;551;48.524;9.056;2023-03-03T05:56:14;54.63;;;28.63;;
505;SDS011;551;48.524;9.056;2023-03-03T05:58:39;61.93;;;29.23;;
505;SDS011;551;48.524;9.056;2023-03-03T06:01:05;55.27;;;28.57;;
505;SDS011;551;48.524;9.056;2023-03-03T06:03:31;62.63;;;30.80;;
505;SDS011;551;48.524;9.056;2023-03-03T06:05:57;58.60;;;31.10;;
505;SDS011;551;48.524;9.056;2023-03-03T06:08:22;54.73;;;27.80;;
505;SDS011;551;48.524;9.056;2023-03-03T06:10:48;56.90;;;29.50;;
505;SDS011;551;48.524;9.056;2023-03-03T06:13:13;59.13;;;29.17;;
505;SDS011;551;48.524;9.056;2023-03-03T06:15:39;56.37;;;27.43;;
505;SDS011;551;48.524;9.056;2023-03-03T06:18:04;52.57;;;27.10;;
505;SDS011;551;48.524;9.056;2023-03-03T06:20:30;51.73;;;28.43;;
505;SDS011;551;48.524;9.056;2023-03-03T06:22:57;53.67;;;27.00;;
505;SDS011;551;48.524;9.056;2023-03-03T06:25:22;67.07;;;27.70;;
505;SDS011;551;48.524;9.056;2023-03-03T06:27:48;64.13;;;28.83;;
505;SDS011;551;48.524;9.056;2023-03-03T06:30:14;71.50;;;30.30;;
505;SDS011;551;48.524;9.056;2023-03-03T06:32:39;60.40;;;30.00;;
505;SDS011;551;48.524;9.056;2023-03-03T06:35:05;53.53;;;30.17;;
505;SDS011;551;48.524;9.056;2023-03-03T06:37:31;56.27;;;26.17;;
505;SDS011;551;48.524;9.056;2023-03-03T06:39:56;47.20;;;26.83;;
505;SDS011;551;48.524;9.056;2023-03-03T06:42:22;61.27;;;29.80;;
505;SDS011;551;48.524;9.056;2023-03-03T06:44:48;67.70;;;32.00;;
505;SDS011;551;48.524;9.056;2023-03-03T06:47:14;55.87;;;28.83;;
505;SDS011;551;48.524;9.056;2023-03-03T06:49:40;59.07;;;29.97;;
505;SDS011;551;48.524;9.056;2023-03-03T06:52:13;57.37;;;29.10;;
505;SDS011;551;48.524;9.056;2023-03-03T06:54:43;52.57;;;26.63;;
505;SDS011;551;48.524;9.056;2023-03-03T06:57:14;56.10;;;29.20;;
505;SDS011;551;48.524;9.056;2023-03-03T06:59:40;57.80;;;29.13;;
505;SDS011;551;48.524;9.056;2023-03-03T07:02:11;57.23;;;28.07;;
505;SDS011;551;48.524;9.056;2023-03-03T07:04:41;57.57;;;30.00;;
505;SDS011;551;48.524;9.056;2023-03-03T07:07:17;54.30;;;26.90;;
505;SDS011;551;48.524;9.056;2023-03-03T07:09:49;58.13;;;27.73;;
505;SDS011;551;48.524;9.056;2023-03-03T07:12:23;55.27;;;27.40;;
505;SDS011;551;48.524;9.056;2023-03-03T07:15:27;64.07;;;30.37;;
505;SDS011;551;48.524;9.056;2023-03-03T07:17:49;61.90;;;29.80;;
505;SDS011;551;48.524;9.056;2023-03-03T07:20:37;53.07;;;27.57;;
505;SDS011;551;48.524;9.056;2023-03-03T07:23:22;57.07;;;29.00;;
505;SDS011;551;48.524;9.056;2023-03-03T07:25:50;53.27;;;26.43;;
505;SDS011;551;48.524;9.056;2023-03-03T07:30:49;50.47;;;28.23;;
505;SDS011;551;48.524;9.056;2023-03-03T07:33:21;52.23;;;29.00;;
505;SDS011;551;48.524;9.056;2023-03-03T07:35:58;55.10;;;26.67;;
505;SDS011;551;48.524;9.056;2023-03-03T07:38:30;57.30;;;29.40;;
505;SDS011;551;48.524;9.056;2023-03-03T07:41:02;52.47;;;28.87;;
505;SDS011;551;48.524;9.056;2023-03-03T07:46:01;55.53;;;30.17;;
505;SDS011;551;48.524;9.056;2023-03-03T07:48:42;59.70;;;28.87;;
505;SDS011;551;48.524;9.056;2023-03-03T07:51:27;53.93;;;29.47;;
505;SDS011;551;48.524;9.056;2023-03-03T07:57:35;48.47;;;26.30;;
505;SDS011;551;48.524;9.056;2023-03-03T07:59:46;52.87;;;27.80;;
505;SDS011;551;48.524;9.056;2023-03-03T08:04:53;50.60;;;27.20;;
505;SDS011;551;48.524;9.056;2023-03-03T08:07:20;51.63;;;27.67;;
505;SDS011;551;48.524;9.056;2023-03-03T08:15:15;58.80;;;28.90;;
505;SDS011;551;48.524;9.056;2023-03-03T08:17:42;54.93;;;29.43;;
505;SDS011;551;48.524;9.056;2023-03-03T08:22:59;52.37;;;28.47;;
505;SDS011;551;48.524;9.056;2023-03-03T08:25:25;54.70;;;28.80;;
505;SDS011;551;48.524;9.056;2023-03-03T08:27:50;60.30;;;29.53;;
505;SDS011;551;48.524;9.056;2023-03-03T08:30:16;59.07;;;28.40;;
505;SDS011;551;48.524;9.056;2023-03-03T08:32:41;55.57;;;28.63;;
505;SDS011;551;48.524;9.056;2023-03-03T08:35:07;55.10;;;28.63;;
505;SDS011;551;48.524;9.056;2023-03-03T08:37:32;54.83;;;28.00;;
505;SDS011;551;48.524;9.056;2023-03-03T08:39:58;57.60;;;29.93;;
505;SDS011;551;48.524;9.056;2023-03-03T08:42:23;64.10;;;31.30;;
505;SDS011;551;48.524;9.056;2023-03-03T08:44:49;49.47;;;27.60;;
505;SDS011;551;48.524;9.056;2023-03-03T08:47:14;49.13;;;28.23;;
505;SDS011;551;48.524;9.056;2023-03-03T08:49:40;66.20;;;31.97;;
505;SDS011;551;48.524;9.056;2023-03-03T08:52:06;71.03;;;29.07;;
505;SDS011;551;48.524;9.056;2023-03-03T08:54:31;52.60;;;28.80;;
505;SDS011;551;48.524;9.056;2023-03-03T08:56:57;42.97;;;26.83;;
505;SDS011;551;48.524;9.056;2023-03-03T08:59:22;49.30;;;29.00;;
505;SDS011;551;48.524;9.056;2023-03-03T09:01:48;49.63;;;27.07;;
505;SDS011;551;48.524;9.056;2023-03-03T09:04:13;52.17;;;28.47;;
505;SDS011;551;48.524;9.056;2023-03-03T09:06:39;51.23;;;29.17;;
505;SDS011;551;48.524;9.056;2023-03-03T09:09:04;51.10;;;27.40;;
505;SDS011;551;48.524;9.056;2023-03-03T09:11:30;45.70;;;27.80;;
505;SDS011;551;48.524;9.056;2023-03-03T09:14:09;51.90;;;27.50;;
505;SDS011;551;48.524;9.056;2023-03-03T09:16:38;57.63;;;28.80;;
505;SDS011;551;48.524;9.056;2023-03-03T09:19:31;48.13;;;26.87;;
505;SDS011;551;48.524;9.056;2023-03-03T09:21:58;58.77;;;29.83;;
505;SDS011;551;48.524;9.056;2023-03-03T09:24:35;49.13;;;28.17;;
505;SDS011;551;48.524;9.056;2023-03-03T09:27:01;52.30;;;28.27;;
505;SDS011;551;48.524;9.056;2023-03-03T09:29:36;54.73;;;28.50;;
505;SDS011;551;48.524;9.056;2023-03-03T09:34:50;51.70;;;27.10;;
505;SDS011;551;48.524;9.056;2023-03-03T09:37:22;52.90;;;28.90;;
505;SDS011;551;48.524;9.056;2023-03-03T09:39:54;48.97;;;28.00;;
505;SDS011;551;48.524;9.056;2023-03-03T09:50:26;51.43;;;28.10;;
505;SDS011;551;48.524;9.056;2023-03-03T09:58:42;47.20;;;27.10;;
505;SDS011;551;48.524;9.056;2023-03-03T10:06:44;46.20;;;26.30;;
505;SDS011;551;48.524;9.056;2023-03-03T10:22:43;40.80;;;27.53;;
505;SDS011;551;48.524;9.056;2023-03-03T10:30:32;47.57;;;28.97;;
505;SDS011;551;48.524;9.056;2023-03-03T10:38:36;44.87;;;30.00;;
505;SDS011;551;48.524;9.056;2023-03-03T10:43:59;41.57;;;28.23;;
505;SDS011;551;48.524;9.056;2023-03-03T10:57:17;47.33;;;30.40;;
505;SDS011;551;48.524;9.056;2023-03-03T11:05:42;48.27;;;29.77;;
505;SDS011;551;48.524;9.056;2023-03-03T11:13:15;40.83;;;29.00;;
505;SDS011;551;48.524;9.056;2023-03-03T11:15:54;46.77;;;28.53;;
505;SDS011;551;48.524;9.056;2023-03-03T11:18:42;42.83;;;28.73;;
505;SDS011;551;48.524;9.056;2023-03-03T11:26:32;48.40;;;30.43;;
505;SDS011;551;48.524;9.056;2023-03-03T11:35:04;48.17;;;30.17;;
505;SDS011;551;48.524;9.056;2023-03-03T11:40:45;43.57;;;29.87;;
505;SDS011;551;48.524;9.056;2023-03-03T11:43:31;39.47;;;27.37;;
505;SDS011;551;48.524;9.056;2023-03-03T11:49:05;41.00;;;29.40;;
505;SDS011;551;48.524;9.056;2023-03-03T11:51:49;37.10;;;28.37;;
505;SDS011;551;48.524;9.056;2023-03-03T11:54:42;43.27;;;31.20;;
505;SDS011;551;48.524;9.056;2023-03-03T11:57:27;48.10;;;31.73;;
505;SDS011;551;48.524;9.056;2023-03-03T12:00:17;41.07;;;30.53;;
505;SDS011;551;48.524;9.056;2023-03-03T12:03:01;45.47;;;31.10;;
505;SDS011;551;48.524;9.056;2023-03-03T12:05:55;38.57;;;27.60;;
505;SDS011;551;48.524;9.056;2023-03-03T12:11:24;44.47;;;29.07;;
505;SDS011;551;48.524;9.056;2023-03-03T12:14:08;37.40;;;28.27;;
505;SDS011;551;48.524;9.056;2023-03-03T12:17:04;38.80;;;27.07;;
505;SDS011;551;48.524;9.056;2023-03-03T12:22:51;37.77;;;28.53;;
505;SDS011;551;48.524;9.056;2023-03-03T12:28:08;42.90;;;28.63;;
505;SDS011;551;48.524;9.056;2023-03-03T12:33:33;42.87;;;30.37;;
505;SDS011;551;48.524;9.056;2023-03-03T12:41:17;40.83;;;28.10;;
505;SDS011;551;48.524;9.056;2023-03-03T12:44:31;43.27;;;29.67;;
505;SDS011;551;48.524;9.056;2023-03-03T12:49:15;43.67;;;28.70;;
505;SDS011;551;48.524;9.056;2023-03-03T12:51:50;43.23;;;29.10;;
505;SDS011;551;48.524;9.056;2023-03-03T13:02:42;42.80;;;27.30;;
505;SDS011;551;48.524;9.056;2023-03-03T13:08:48;33.50;;;24.50;;
505;SDS011;551;48.524;9.056;2023-03-03T13:20:03;35.87;;;25.63;;
505;SDS011;551;48.524;9.056;2023-03-03T13:22:48;44.70;;;27.07;;
505;SDS011;551;48.524;9.056;2023-03-03T13:28:10;32.50;;;24.63;;
505;SDS011;551;48.524;9.056;2023-03-03T13:30:54;33.40;;;24.37;;
505;SDS011;551;48.524;9.056;2023-03-03T13:33:35;38.27;;;24.37;;
505;SDS011;551;48.524;9.056;2023-03-03T13:36:02;34.73;;;25.93;;
505;SDS011;551;48.524;9.056;2023-03-03T13:38:34;36.70;;;23.77;;
505;SDS011;551;48.524;9.056;2023-03-03T13:44:29;31.40;;;22.97;;
505;SDS011;551;48.524;9.056;2023-03-03T13:52:30;34.70;;;25.00;;
505;SDS011;551;48.524;9.056;2023-03-03T13:55:08;36.97;;;26.97;;
505;SDS011;551;48.524;9.056;2023-03-03T13:57:58;38.40;;;25.70;;
505;SDS011;551;48.524;9.056;2023-03-03T14:05:55;38.00;;;25.50;;
505;SDS011;551;48.524;9.056;2023-03-03T14:08:42;37.07;;;25.23;;
505;SDS011;551;48.524;9.056;2023-03-03T14:11:10;39.40;;;25.57;;
505;SDS011;551;48.524;9.056;2023-03-03T14:19:27;30.80;;;22.20;;
505;SDS011;551;48.524;9.056;2023-03-03T14:27:33;38.00;;;23.20;;
505;SDS011;551;48.524;9.056;2023-03-03T14:30:17;33.30;;;23.13;;
505;SDS011;551;48.524;9.056;2023-03-03T14:33:14;36.67;;;23.20;;
505;SDS011;551;48.524;9.056;2023-03-03T14:35:47;34.60;;;23.33;;
505;SDS011;551;48.524;9.056;2023-03-03T14:38:22;34.87;;;22.90;;
505;SDS011;551;48.524;9.056;2023-03-03T14:41:13;34.73;;;23.20;;
505;SDS011;551;48.524;9.056;2023-03-03T14:48:56;37.13;;;21.40;;
505;SDS011;551;48.524;9.056;2023-03-03T14:53:48;42.23;;;22.50;;
505;SDS011;551;48.524;9.056;2023-03-03T14:56:27;41.40;;;22.97;;
505;SDS011;551;48.524;9.056;2023-03-03T14:59:41;40.53;;;21.97;;
505;SDS011;551;48.524;9.056;2023-03-03T15:01:44;37.70;;;22.73;;
505;SDS011;551;48.524;9.056;2023-03-03T15:06:43;36.10;;;21.70;;
505;SDS011;551;48.524;9.056;2023-03-03T15:09:18;35.70;;;21.43;;
505;SDS011;551;48.524;9.056;2023-03-03T15:11:49;35.27;;;22.07;;
505;SDS011;551;48.524;9.056;2023-03-03T15:14:17;33.27;;;20.57;;
505;SDS011;551;48.524;9.056;2023-03-03T15:16:44;33.17;;;21.20;;
505;SDS011;551;48.524;9.056;2023-03-03T15:27:08;35.20;;;19.60;;
505;SDS011;551;48.524;9.056;2023-03-03T15:29:54;31.60;;;19.60;;
505;SDS011;551;48.524;9.056;2023-03-03T15:32:46;34.10;;;20.27;;
505;SDS011;551;48.524;9.056;2023-03-03T15:35:22;34.97;;;19.47;;
505;SDS011;551;48.524;9.056;2023-03-03T15:38:02;35.23;;;20.00;;
505;SDS011;551;48.524;9.056;2023-03-03T15:52:10;32.40;;;20.90;;
505;SDS011;551;48.524;9.056;2023-03-03T15:54:53;32.00;;;20.40;;
505;SDS011;551;48.524;9.056;2023-03-03T15:57:53;35.63;;;20.60;;
505;SDS011;551;48.524;9.056;2023-03-03T16:03:23;34.63;;;19.53;;
505;SDS011;551;48.524;9.056;2023-03-03T16:06:04;33.20;;;20.50;;
505;SDS011;551;48.524;9.056;2023-03-03T16:08:42;32.03;;;19.43;;
505;SDS011;551;48.524;9.056;2023-03-03T16:14:06;34.00;;;18.60;;
505;SDS011;551;48.524;9.056;2023-03-03T16:24:51;36.77;;;21.33;;
505;SDS011;551;48.524;9.056;2023-03-03T16:27:32;34.90;;;19.53;;
505;SDS011;551;48.524;9.056;2023-03-03T16:30:18;33.93;;;21.10;;
505;SDS011;551;48.524;9.056;2023-03-03T16:35:43;36.43;;;20.50;;
505;SDS011;551;48.524;9.056;2023-03-03T16:38:23;40.70;;;20.33;;
505;SDS011;551;48.524;9.056;2023-03-03T16:40:56;33.97;;;19.77;;
505;SDS011;551;48.524;9.056;2023-03-03T16:43:36;32.27;;;20.03;;
505;SDS011;551;48.524;9.056;2023-03-03T16:48:41;36.93;;;20.43;;
505;SDS011;551;48.524;9.056;2023-03-03T16:51:20;35.73;;;19.10;;
505;SDS011;551;48.524;9.056;2023-03-03T16:56:36;31.33;;;19.20;;
505;SDS011;551;48.524;9.056;2023-03-03T16:59:17;32.27;;;19.10;;
505;SDS011;551;48.524;9.056;2023-03-03T17:24:21;33.03;;;19.33;;
505;SDS011;551;48.524;9.056;2023-03-03T17:29:50;32.90;;;20.07;;
505;SDS011;551;48.524;9.056;2023-03-03T17:32:27;36.87;;;22.40;;
505;SDS011;551;48.524;9.056;2023-03-03T17:47:01;41.37;;;21.60;;
505;SDS011;551;48.524;9.056;2023-03-03T18:00:34;32.10;;;18.60;;
505;SDS011;551;48.524;9.056;2023-03-03T18:08:55;48.73;;;21.53;;
505;SDS011;551;48.524;9.056;2023-03-03T18:17:07;45.00;;;23.50;;
505;SDS011;551;48.524;9.056;2023-03-03T18:22:55;52.50;;;23.60;;
505;SDS011;551;48.524;9.056;2023-03-03T18:25:25;43.93;;;24.90;;
505;SDS011;551;48.524;9.056;2023-03-03T18:28:20;41.27;;;22.47;;
505;SDS011;551;48.524;9.056;2023-03-03T18:30:51;39.50;;;22.40;;
505;SDS011;551;48.524;9.056;2023-03-03T18:38:50;34.93;;;21.03;;
505;SDS011;551;48.524;9.056;2023-03-03T18:41:20;39.70;;;21.73;;
505;SDS011;551;48.524;9.056;2023-03-03T18:43:57;45.80;;;23.07;;
505;SDS011;551;48.524;9.056;2023-03-03T18:48:56;36.13;;;21.47;;
505;SDS011;551;48.524;9.056;2023-03-03T18:53:58;40.40;;;21.63;;
505;SDS011;551;48.524;9.056;2023-03-03T18:59:37;41.50;;;21.80;;
505;SDS011;551;48.524;9.056;2023-03-03T19:17:57;37.70;;;22.03;;
505;SDS011;551;48.524;9.056;2023-03-03T19:23:07;42.17;;;21.33;;
505;SDS011;551;48.524;9.056;2023-03-03T19:25:43;41.30;;;22.77;;
505;SDS011;551;48.524;9.056;2023-03-03T19:33:32;45.60;;;24.50;;
505;SDS011;551;48.524;9.056;2023-03-03T19:38:57;42.73;;;24.17;;
505;SDS011;551;48.524;9.056;2023-03-03T19:41:40;52.03;;;25.73;;
505;SDS011;551;48.524;9.056;2023-03-03T19:55:48;48.40;;;26.03;;
505;SDS011;551;48.524;9.056;2023-03-03T20:04:12;46.80;;;25.10;;
505;SDS011;551;48.524;9.056;2023-03-03T20:07:11;44.93;;;27.53;;
505;SDS011;551;48.524;9.056;2023-03-03T20:09:55;46.20;;;24.87;;
505;SDS011;551;48.524;9.056;2023-03-03T20:18:34;52.50;;;25.80;;
505;SDS011;551;48.524;9.056;2023-03-03T20:24:26;46.60;;;28.57;;
505;SDS011;551;48.524;9.056;2023-03-03T20:27:04;47.60;;;26.97;;
505;SDS011;551;48.524;9.056;2023-03-03T20:29:42;48.80;;;27.30;;
505;SDS011;551;48.524;9.056;2023-03-03T20:35:16;49.30;;;27.77;;
505;SDS011;551;48.524;9.056;2023-03-03T20:40:34;43.83;;;26.70;;
505;SDS011;551;48.524;9.056;2023-03-03T20:45:48;46.03;;;25.67;;
505;SDS011;551;48.524;9.056;2023-03-03T20:59:16;48.50;;;26.90;;
505;SDS011;551;48.524;9.056;2023-03-03T21:02:01;47.27;;;27.53;;
505;SDS011;551;48.524;9.056;2023-03-03T21:04:36;48.70;;;26.53;;
505;SDS011;551;48.524;9.056;2023-03-03T21:07:02;55.20;;;27.20;;
505;SDS011;551;48.524;9.056;2023-03-03T21:09:36;52.00;;;25.83;;
505;SDS011;551;48.524;9.056;2023-03-03T21:15:03;55.23;;;29.37;;
505;SDS011;551;48.524;9.056;2023-03-03T21:17:35;53.80;;;28.70;;
505;SDS011;551;48.524;9.056;2023-03-03T21:20:16;52.13;;;29.17;;
505;SDS011;551;48.524;9.056;2023-03-03T21:22:59;58.80;;;29.53;;
505;SDS011;551;48.524;9.056;2023-03-03T21:25:48;56.60;;;31.13;;
505;SDS011;551;48.524;9.056;2023-03-03T21:28:17;62.57;;;29.13;;
505;SDS011;551;48.524;9.056;2023-03-03T21:31:04;58.27;;;30.17;;
505;SDS011;551;48.524;9.056;2023-03-03T21:33:52;59.37;;;29.30;;
505;SDS011;551;48.524;9.056;2023-03-03T21:36:20;52.50;;;28.17;;
505;SDS011;551;48.524;9.056;2023-03-03T21:38:47;53.67;;;29.83;;
505;SDS011;551;48.524;9.056;2023-03-03T21:41:14;54.63;;;28.43;;
505;SDS011;551;48.524;9.056;2023-03-03T21:43:42;52.63;;;28.03;;
505;SDS011;551;48.524;9.056;2023-03-03T21:46:09;48.83;;;27.97;;
505;SDS011;551;48.524;9.056;2023-03-03T21:48:39;55.53;;;30.50;;
505;SDS011;551;48.524;9.056;2023-03-03T21:51:06;61.13;;;30.27;;
505;SDS011;551;48.524;9.056;2023-03-03T21:53:33;55.73;;;28.50;;
505;SDS011;551;48.524;9.056;2023-03-03T21:55:59;53.10;;;29.07;;
505;SDS011;551;48.524;9.056;2023-03-03T21:58:24;56.40;;;29.13;;
505;SDS011;551;48.524;9.056;2023-03-03T22:00:50;58.60;;;30.60;;
505;SDS011;551;48.524;9.056;2023-03-03T22:03:15;60.10;;;28.83;;
505;SDS011;551;48.524;9.056;2023-03-03T22:05:44;60.23;;;30.43;;
505;SDS011;551;48.524;9.056;2023-03-03T22:08:10;56.63;;;33.50;;
505;SDS011;551;48.524;9.056;2023-03-03T22:10:35;58.40;;;32.27;;
505;SDS011;551;48.524;9.056;2023-03-03T22:13:01;66.87;;;30.57;;
505;SDS011;551;48.524;9.056;2023-03-03T22:15:26;58.17;;;31.63;;
505;SDS011;551;48.524;9.056;2023-03-03T22:17:54;56.63;;;31.10;;
505;SDS011;551;48.524;9.056;2023-03-03T22:20:20;57.83;;;29.90;;
505;SDS011;551;48.524;9.056;2023-03-03T22:22:46;55.80;;;31.67;;
505;SDS011;551;48.524;9.056;2023-03-03T22:25:11;62.70;;;31.77;;
505;SDS011;551;48.524;9.056;2023-03-03T22:27:37;62.60;;;31.37;;